sensor_id;sensor_type;location;lat;lon;timestamp;P1;durP1;ratioP1;P2;durP2;ratioP2
39176;SDS011;24904;52.208;21.192;2023-03-13T00:01:10;34.60;;;15.30;;
39176;SDS011;24904;52.208;21.192;2023-03-13T00:06:15;36.30;;;14.70;;
39176;SDS011;24904;52.208;21.192;2023-03-13T00:11:18;28.60;;;14.10;;
39176;SDS011;24904;52.208;21.192;2023-03-13T00:16:22;27.10;;;14.40;;
39176;SDS011;24904;52.208;21.192;2023-03-13T00:21:26;28.60;;;13.60;;
39176;SDS011;24904;52.208;21.192;2023-03-13T00:26:30;28.90;;;12.40;;
39176;SDS011;24904;52.208;21.192;2023-03-13T00:31:33;28.90;;;12.30;;
39176;SDS011;24904;52.208;21.192;2023-03-13T00:36:36;26.20;;;12.90;;
39176;SDS011;24904;52.208;21.192;2023-03-13T00:41:39;27.20;;;12.60;;
39176;SDS011;24904;52.208;21.192;2023-03-13T00:46:42;33.20;;;12.40;;
39176;SDS011;24904;52.208;21.192;2023-03-13T00:51:45;25.60;;;13.10;;
39176;SDS011;24904;52.208;21.192;2023-03-13T00:56:48;26.30;;;12.50;;
39176;SDS011;24904;52.208;21.192;2023-03-13T01:01:51;25.60;;;12.20;;
39176;SDS011;24904;52.208;21.192;2023-03-13T01:06:55;25.10;;;12.60;;
39176;SDS011;24904;52.208;21.192;2023-03-13T01:11:58;28.10;;;12.10;;
39176;SDS011;24904;52.208;21.192;2023-03-13T01:17:01;29.30;;;12.60;;
39176;SDS011;24904;52.208;21.192;2023-03-13T01:22:04;22.10;;;11.30;;
39176;SDS011;24904;52.208;21.192;2023-03-13T01:27:11;30.90;;;13.50;;
39176;SDS011;24904;52.208;21.192;2023-03-13T01:32:16;24.60;;;12.00;;
39176;SDS011;24904;52.208;21.192;2023-03-13T01:37:19;22.10;;;12.60;;
39176;SDS011;24904;52.208;21.192;2023-03-13T01:42:22;25.30;;;12.10;;
39176;SDS011;24904;52.208;21.192;2023-03-13T01:47:25;29.10;;;12.00;;
39176;SDS011;24904;52.208;21.192;2023-03-13T01:52:44;23.50;;;12.00;;
39176;SDS011;24904;52.208;21.192;2023-03-13T01:57:56;25.70;;;12.20;;
39176;SDS011;24904;52.208;21.192;2023-03-13T02:03:01;29.70;;;12.00;;
39176;SDS011;24904;52.208;21.192;2023-03-13T02:08:09;26.90;;;11.80;;
39176;SDS011;24904;52.208;21.192;2023-03-13T02:13:16;21.70;;;10.50;;
39176;SDS011;24904;52.208;21.192;2023-03-13T02:18:20;25.70;;;11.00;;
39176;SDS011;24904;52.208;21.192;2023-03-13T02:23:26;26.80;;;12.70;;
39176;SDS011;24904;52.208;21.192;2023-03-13T02:28:35;19.90;;;11.10;;
39176;SDS011;24904;52.208;21.192;2023-03-13T02:33:43;24.60;;;11.20;;
39176;SDS011;24904;52.208;21.192;2023-03-13T02:38:50;20.20;;;10.10;;
39176;SDS011;24904;52.208;21.192;2023-03-13T02:43:58;22.80;;;10.80;;
39176;SDS011;24904;52.208;21.192;2023-03-13T02:49:15;16.40;;;9.10;;
39176;SDS011;24904;52.208;21.192;2023-03-13T02:54:21;20.50;;;9.90;;
39176;SDS011;24904;52.208;21.192;2023-03-13T02:59:27;16.70;;;8.50;;
39176;SDS011;24904;52.208;21.192;2023-03-13T03:04:31;18.40;;;8.70;;
39176;SDS011;24904;52.208;21.192;2023-03-13T03:09:34;18.50;;;9.10;;
39176;SDS011;24904;52.208;21.192;2023-03-13T03:14:41;17.90;;;9.00;;
39176;SDS011;24904;52.208;21.192;2023-03-13T03:19:44;18.70;;;9.00;;
39176;SDS011;24904;52.208;21.192;2023-03-13T03:24:47;16.60;;;9.10;;
39176;SDS011;24904;52.208;21.192;2023-03-13T03:29:50;23.40;;;9.30;;
39176;SDS011;24904;52.208;21.192;2023-03-13T03:34:55;18.30;;;8.50;;
39176;SDS011;24904;52.208;21.192;2023-03-13T03:39:58;17.60;;;8.90;;
39176;SDS011;24904;52.208;21.192;2023-03-13T03:45:04;16.90;;;8.60;;
39176;SDS011;24904;52.208;21.192;2023-03-13T03:50:10;18.50;;;7.80;;
39176;SDS011;24904;52.208;21.192;2023-03-13T03:55:20;18.60;;;8.80;;
39176;SDS011;24904;52.208;21.192;2023-03-13T04:00:23;17.00;;;7.90;;
39176;SDS011;24904;52.208;21.192;2023-03-13T04:05:28;17.50;;;8.30;;
39176;SDS011;24904;52.208;21.192;2023-03-13T04:10:31;17.10;;;7.70;;
39176;SDS011;24904;52.208;21.192;2023-03-13T04:15:34;18.40;;;7.70;;
39176;SDS011;24904;52.208;21.192;2023-03-13T04:20:40;14.20;;;7.00;;
39176;SDS011;24904;52.208;21.192;2023-03-13T04:25:43;16.80;;;7.90;;
39176;SDS011;24904;52.208;21.192;2023-03-13T04:30:47;14.00;;;7.20;;
39176;SDS011;24904;52.208;21.192;2023-03-13T04:36:09;15.00;;;7.60;;
39176;SDS011;24904;52.208;21.192;2023-03-13T04:41:30;13.20;;;7.30;;
39176;SDS011;24904;52.208;21.192;2023-03-13T04:46:59;17.20;;;7.30;;
39176;SDS011;24904;52.208;21.192;2023-03-13T04:52:11;15.50;;;7.70;;
39176;SDS011;24904;52.208;21.192;2023-03-13T04:57:47;13.90;;;7.10;;
39176;SDS011;24904;52.208;21.192;2023-03-13T05:03:16;13.40;;;8.10;;
39176;SDS011;24904;52.208;21.192;2023-03-13T05:08:42;14.30;;;7.20;;
39176;SDS011;24904;52.208;21.192;2023-03-13T05:14:18;14.40;;;8.10;;
39176;SDS011;24904;52.208;21.192;2023-03-13T05:19:41;16.40;;;8.20;;
39176;SDS011;24904;52.208;21.192;2023-03-13T05:25:07;16.90;;;8.50;;
39176;SDS011;24904;52.208;21.192;2023-03-13T05:30:29;18.50;;;7.40;;
39176;SDS011;24904;52.208;21.192;2023-03-13T05:35:47;16.50;;;8.70;;
39176;SDS011;24904;52.208;21.192;2023-03-13T05:47:16;15.30;;;7.90;;
39176;SDS011;24904;52.208;21.192;2023-03-13T05:52:40;16.50;;;8.80;;
39176;SDS011;24904;52.208;21.192;2023-03-13T05:57:55;15.70;;;8.70;;
39176;SDS011;24904;52.208;21.192;2023-03-13T06:03:16;16.10;;;8.60;;
39176;SDS011;24904;52.208;21.192;2023-03-13T06:08:21;17.30;;;8.90;;
39176;SDS011;24904;52.208;21.192;2023-03-13T06:13:24;17.00;;;9.20;;
39176;SDS011;24904;52.208;21.192;2023-03-13T06:18:29;13.90;;;8.30;;
39176;SDS011;24904;52.208;21.192;2023-03-13T06:23:32;13.60;;;8.10;;
39176;SDS011;24904;52.208;21.192;2023-03-13T06:28:35;14.00;;;8.80;;
39176;SDS011;24904;52.208;21.192;2023-03-13T06:33:38;15.90;;;8.70;;
39176;SDS011;24904;52.208;21.192;2023-03-13T06:38:41;17.10;;;9.50;;
39176;SDS011;24904;52.208;21.192;2023-03-13T06:43:44;17.30;;;9.10;;
39176;SDS011;24904;52.208;21.192;2023-03-13T06:48:48;21.40;;;10.80;;
39176;SDS011;24904;52.208;21.192;2023-03-13T06:53:51;20.40;;;10.10;;
39176;SDS011;24904;52.208;21.192;2023-03-13T06:58:54;17.40;;;10.50;;
39176;SDS011;24904;52.208;21.192;2023-03-13T07:03:57;18.80;;;10.40;;
39176;SDS011;24904;52.208;21.192;2023-03-13T07:09:00;20.00;;;9.90;;
39176;SDS011;24904;52.208;21.192;2023-03-13T07:14:05;17.10;;;9.40;;
39176;SDS011;24904;52.208;21.192;2023-03-13T07:19:08;16.50;;;10.30;;
39176;SDS011;24904;52.208;21.192;2023-03-13T07:24:11;19.10;;;9.60;;
39176;SDS011;24904;52.208;21.192;2023-03-13T07:29:14;18.90;;;10.90;;
39176;SDS011;24904;52.208;21.192;2023-03-13T07:34:17;15.10;;;8.90;;
39176;SDS011;24904;52.208;21.192;2023-03-13T07:39:20;17.20;;;10.60;;
39176;SDS011;24904;52.208;21.192;2023-03-13T07:44:24;16.20;;;9.10;;
39176;SDS011;24904;52.208;21.192;2023-03-13T07:49:27;17.00;;;10.10;;
39176;SDS011;24904;52.208;21.192;2023-03-13T07:54:30;19.90;;;9.80;;
39176;SDS011;24904;52.208;21.192;2023-03-13T07:59:33;16.90;;;9.30;;
39176;SDS011;24904;52.208;21.192;2023-03-13T08:04:36;16.50;;;9.90;;
39176;SDS011;24904;52.208;21.192;2023-03-13T08:09:39;16.60;;;8.30;;
39176;SDS011;24904;52.208;21.192;2023-03-13T08:14:43;19.60;;;9.50;;
39176;SDS011;24904;52.208;21.192;2023-03-13T08:19:46;13.00;;;8.10;;
39176;SDS011;24904;52.208;21.192;2023-03-13T08:24:50;14.10;;;7.90;;
39176;SDS011;24904;52.208;21.192;2023-03-13T08:29:53;17.90;;;9.40;;
39176;SDS011;24904;52.208;21.192;2023-03-13T08:34:56;16.00;;;8.80;;
39176;SDS011;24904;52.208;21.192;2023-03-13T08:39:59;12.30;;;8.20;;
39176;SDS011;24904;52.208;21.192;2023-03-13T08:45:05;19.40;;;8.70;;
39176;SDS011;24904;52.208;21.192;2023-03-13T08:50:10;15.50;;;9.10;;
39176;SDS011;24904;52.208;21.192;2023-03-13T08:55:15;15.30;;;8.70;;
39176;SDS011;24904;52.208;21.192;2023-03-13T09:06:48;15.50;;;8.30;;
39176;SDS011;24904;52.208;21.192;2023-03-13T09:17:38;15.40;;;9.20;;
39176;SDS011;24904;52.208;21.192;2023-03-13T09:22:43;15.90;;;8.40;;
39176;SDS011;24904;52.208;21.192;2023-03-13T09:27:48;21.30;;;8.30;;
39176;SDS011;24904;52.208;21.192;2023-03-13T09:32:53;18.20;;;9.50;;
39176;SDS011;24904;52.208;21.192;2023-03-13T09:37:57;14.90;;;8.10;;
39176;SDS011;24904;52.208;21.192;2023-03-13T09:57:19;14.90;;;6.20;;
39176;SDS011;24904;52.208;21.192;2023-03-13T10:02:34;12.70;;;6.60;;
39176;SDS011;24904;52.208;21.192;2023-03-13T10:08:00;13.50;;;5.70;;
39176;SDS011;24904;52.208;21.192;2023-03-13T10:13:18;13.60;;;5.10;;
39176;SDS011;24904;52.208;21.192;2023-03-13T10:18:26;9.70;;;4.70;;
39176;SDS011;24904;52.208;21.192;2023-03-13T10:23:34;10.20;;;4.50;;
39176;SDS011;24904;52.208;21.192;2023-03-13T10:28:47;12.00;;;4.20;;
39176;SDS011;24904;52.208;21.192;2023-03-13T10:33:54;15.30;;;5.00;;
39176;SDS011;24904;52.208;21.192;2023-03-13T10:39:13;13.50;;;4.80;;
39176;SDS011;24904;52.208;21.192;2023-03-13T10:44:21;14.20;;;3.90;;
39176;SDS011;24904;52.208;21.192;2023-03-13T10:49:32;14.40;;;3.90;;
39176;SDS011;24904;52.208;21.192;2023-03-13T10:54:48;9.90;;;4.10;;
39176;SDS011;24904;52.208;21.192;2023-03-13T11:00:02;11.70;;;4.10;;
39176;SDS011;24904;52.208;21.192;2023-03-13T11:05:32;12.60;;;4.00;;
39176;SDS011;24904;52.208;21.192;2023-03-13T11:10:51;15.50;;;4.70;;
39176;SDS011;24904;52.208;21.192;2023-03-13T11:16:02;15.40;;;4.40;;
39176;SDS011;24904;52.208;21.192;2023-03-13T11:21:16;12.80;;;4.20;;
39176;SDS011;24904;52.208;21.192;2023-03-13T11:26:32;11.10;;;3.60;;
39176;SDS011;24904;52.208;21.192;2023-03-13T11:31:40;13.40;;;5.00;;
39176;SDS011;24904;52.208;21.192;2023-03-13T11:36:50;12.00;;;4.50;;
39176;SDS011;24904;52.208;21.192;2023-03-13T11:42:00;12.50;;;4.30;;
39176;SDS011;24904;52.208;21.192;2023-03-13T11:52:54;11.30;;;4.20;;
39176;SDS011;24904;52.208;21.192;2023-03-13T11:58:16;12.00;;;4.70;;
39176;SDS011;24904;52.208;21.192;2023-03-13T12:03:35;12.30;;;5.80;;
39176;SDS011;24904;52.208;21.192;2023-03-13T12:08:46;13.50;;;5.10;;
39176;SDS011;24904;52.208;21.192;2023-03-13T12:13:56;13.90;;;4.90;;
39176;SDS011;24904;52.208;21.192;2023-03-13T12:19:04;12.90;;;4.80;;
39176;SDS011;24904;52.208;21.192;2023-03-13T12:24:12;10.40;;;4.30;;
39176;SDS011;24904;52.208;21.192;2023-03-13T12:29:29;13.50;;;4.30;;
39176;SDS011;24904;52.208;21.192;2023-03-13T12:34:45;8.80;;;4.10;;
39176;SDS011;24904;52.208;21.192;2023-03-13T12:39:59;10.70;;;4.50;;
39176;SDS011;24904;52.208;21.192;2023-03-13T12:45:13;12.20;;;4.00;;
39176;SDS011;24904;52.208;21.192;2023-03-13T12:50:23;10.00;;;3.80;;
39176;SDS011;24904;52.208;21.192;2023-03-13T13:01:18;11.90;;;4.30;;
39176;SDS011;24904;52.208;21.192;2023-03-13T13:12:11;8.60;;;3.10;;
39176;SDS011;24904;52.208;21.192;2023-03-13T13:22:48;11.50;;;3.60;;
39176;SDS011;24904;52.208;21.192;2023-03-13T13:27:53;13.80;;;4.10;;
39176;SDS011;24904;52.208;21.192;2023-03-13T13:38:34;10.50;;;3.80;;
39176;SDS011;24904;52.208;21.192;2023-03-13T13:43:41;10.70;;;4.30;;
39176;SDS011;24904;52.208;21.192;2023-03-13T13:48:47;10.00;;;3.70;;
39176;SDS011;24904;52.208;21.192;2023-03-13T13:59:55;12.60;;;3.40;;
39176;SDS011;24904;52.208;21.192;2023-03-13T14:05:16;11.30;;;3.70;;
39176;SDS011;24904;52.208;21.192;2023-03-13T14:10:38;16.20;;;4.30;;
39176;SDS011;24904;52.208;21.192;2023-03-13T14:15:45;18.20;;;4.60;;
39176;SDS011;24904;52.208;21.192;2023-03-13T14:20:55;10.80;;;4.60;;
39176;SDS011;24904;52.208;21.192;2023-03-13T14:26:09;17.00;;;5.10;;
39176;SDS011;24904;52.208;21.192;2023-03-13T14:31:27;14.80;;;5.30;;
39176;SDS011;24904;52.208;21.192;2023-03-13T14:36:45;14.50;;;4.50;;
39176;SDS011;24904;52.208;21.192;2023-03-13T14:41:52;16.60;;;4.20;;
39176;SDS011;24904;52.208;21.192;2023-03-13T14:46:57;15.80;;;4.70;;
39176;SDS011;24904;52.208;21.192;2023-03-13T14:52:12;12.00;;;5.00;;
39176;SDS011;24904;52.208;21.192;2023-03-13T14:57:22;10.90;;;4.10;;
39176;SDS011;24904;52.208;21.192;2023-03-13T15:02:29;17.20;;;4.50;;
39176;SDS011;24904;52.208;21.192;2023-03-13T15:07:36;15.60;;;4.80;;
39176;SDS011;24904;52.208;21.192;2023-03-13T15:12:43;13.60;;;4.30;;
39176;SDS011;24904;52.208;21.192;2023-03-13T15:17:49;16.90;;;4.40;;
39176;SDS011;24904;52.208;21.192;2023-03-13T15:22:54;15.10;;;4.80;;
39176;SDS011;24904;52.208;21.192;2023-03-13T15:28:00;11.40;;;4.00;;
39176;SDS011;24904;52.208;21.192;2023-03-13T15:33:05;16.70;;;5.10;;
39176;SDS011;24904;52.208;21.192;2023-03-13T15:38:13;12.50;;;4.40;;
39176;SDS011;24904;52.208;21.192;2023-03-13T15:43:19;18.60;;;5.60;;
39176;SDS011;24904;52.208;21.192;2023-03-13T15:48:25;11.70;;;4.80;;
39176;SDS011;24904;52.208;21.192;2023-03-13T15:53:32;15.20;;;4.40;;
39176;SDS011;24904;52.208;21.192;2023-03-13T15:58:38;9.00;;;4.00;;
39176;SDS011;24904;52.208;21.192;2023-03-13T16:03:43;12.60;;;4.30;;
39176;SDS011;24904;52.208;21.192;2023-03-13T16:08:48;20.00;;;5.20;;
39176;SDS011;24904;52.208;21.192;2023-03-13T16:13:53;14.00;;;3.90;;
39176;SDS011;24904;52.208;21.192;2023-03-13T16:18:58;11.20;;;4.70;;
39176;SDS011;24904;52.208;21.192;2023-03-13T16:24:05;13.40;;;4.30;;
39176;SDS011;24904;52.208;21.192;2023-03-13T16:29:10;16.00;;;4.40;;
39176;SDS011;24904;52.208;21.192;2023-03-13T16:34:16;10.70;;;4.40;;
39176;SDS011;24904;52.208;21.192;2023-03-13T16:45:24;11.00;;;4.80;;
39176;SDS011;24904;52.208;21.192;2023-03-13T16:50:30;9.20;;;3.70;;
39176;SDS011;24904;52.208;21.192;2023-03-13T16:55:37;12.00;;;4.50;;
39176;SDS011;24904;52.208;21.192;2023-03-13T17:00:42;13.90;;;4.90;;
39176;SDS011;24904;52.208;21.192;2023-03-13T17:05:47;11.90;;;5.00;;
39176;SDS011;24904;52.208;21.192;2023-03-13T17:10:52;12.00;;;4.20;;
39176;SDS011;24904;52.208;21.192;2023-03-13T17:15:57;10.10;;;4.70;;
39176;SDS011;24904;52.208;21.192;2023-03-13T17:21:02;12.00;;;5.10;;
39176;SDS011;24904;52.208;21.192;2023-03-13T17:26:15;12.60;;;5.30;;
39176;SDS011;24904;52.208;21.192;2023-03-13T17:31:23;14.30;;;5.50;;
39176;SDS011;24904;52.208;21.192;2023-03-13T17:36:29;13.60;;;6.00;;
39176;SDS011;24904;52.208;21.192;2023-03-13T17:41:35;9.40;;;4.80;;
39176;SDS011;24904;52.208;21.192;2023-03-13T17:46:41;11.90;;;5.80;;
39176;SDS011;24904;52.208;21.192;2023-03-13T17:58:22;9.10;;;4.90;;
39176;SDS011;24904;52.208;21.192;2023-03-13T18:03:27;15.50;;;5.80;;
39176;SDS011;24904;52.208;21.192;2023-03-13T18:08:32;11.10;;;5.60;;
39176;SDS011;24904;52.208;21.192;2023-03-13T18:22:08;10.70;;;5.60;;
39176;SDS011;24904;52.208;21.192;2023-03-13T18:27:15;9.60;;;4.90;;
39176;SDS011;24904;52.208;21.192;2023-03-13T18:32:19;11.40;;;5.10;;
39176;SDS011;24904;52.208;21.192;2023-03-13T18:37:25;11.40;;;5.20;;
39176;SDS011;24904;52.208;21.192;2023-03-13T18:42:30;11.10;;;5.50;;
39176;SDS011;24904;52.208;21.192;2023-03-13T18:47:33;11.60;;;5.00;;
39176;SDS011;24904;52.208;21.192;2023-03-13T18:52:36;10.90;;;5.10;;
39176;SDS011;24904;52.208;21.192;2023-03-13T18:57:39;10.10;;;5.00;;
39176;SDS011;24904;52.208;21.192;2023-03-13T19:02:43;7.80;;;4.60;;
39176;SDS011;24904;52.208;21.192;2023-03-13T19:07:46;10.80;;;4.60;;
39176;SDS011;24904;52.208;21.192;2023-03-13T19:12:50;10.20;;;4.80;;
39176;SDS011;24904;52.208;21.192;2023-03-13T19:17:54;11.40;;;5.00;;
39176;SDS011;24904;52.208;21.192;2023-03-13T19:22:59;10.70;;;5.50;;
39176;SDS011;24904;52.208;21.192;2023-03-13T19:28:04;10.40;;;4.90;;
39176;SDS011;24904;52.208;21.192;2023-03-13T19:33:09;12.00;;;5.40;;
39176;SDS011;24904;52.208;21.192;2023-03-13T19:38:13;10.80;;;5.60;;
39176;SDS011;24904;52.208;21.192;2023-03-13T19:43:15;13.50;;;6.50;;
39176;SDS011;24904;52.208;21.192;2023-03-13T19:48:18;9.00;;;5.00;;
39176;SDS011;24904;52.208;21.192;2023-03-13T19:53:23;13.40;;;5.90;;
39176;SDS011;24904;52.208;21.192;2023-03-13T19:58:27;12.20;;;6.00;;
39176;SDS011;24904;52.208;21.192;2023-03-13T20:03:31;15.50;;;6.90;;
39176;SDS011;24904;52.208;21.192;2023-03-13T20:08:34;11.00;;;5.50;;
39176;SDS011;24904;52.208;21.192;2023-03-13T20:13:37;11.20;;;5.70;;
39176;SDS011;24904;52.208;21.192;2023-03-13T20:18:41;13.80;;;5.70;;
39176;SDS011;24904;52.208;21.192;2023-03-13T20:23:46;13.30;;;5.20;;
39176;SDS011;24904;52.208;21.192;2023-03-13T20:28:50;12.40;;;5.30;;
39176;SDS011;24904;52.208;21.192;2023-03-13T20:33:54;10.00;;;5.20;;
39176;SDS011;24904;52.208;21.192;2023-03-13T20:38:58;9.80;;;5.10;;
39176;SDS011;24904;52.208;21.192;2023-03-13T20:44:01;13.70;;;5.40;;
39176;SDS011;24904;52.208;21.192;2023-03-13T20:49:04;11.10;;;5.40;;
39176;SDS011;24904;52.208;21.192;2023-03-13T20:54:07;10.90;;;5.80;;
39176;SDS011;24904;52.208;21.192;2023-03-13T20:59:11;11.90;;;5.60;;
39176;SDS011;24904;52.208;21.192;2023-03-13T21:04:14;11.30;;;5.90;;
39176;SDS011;24904;52.208;21.192;2023-03-13T21:09:17;12.90;;;5.80;;
39176;SDS011;24904;52.208;21.192;2023-03-13T21:14:20;11.70;;;6.00;;
39176;SDS011;24904;52.208;21.192;2023-03-13T21:19:23;14.30;;;6.40;;
39176;SDS011;24904;52.208;21.192;2023-03-13T21:24:26;11.20;;;5.90;;
39176;SDS011;24904;52.208;21.192;2023-03-13T21:29:29;10.60;;;6.00;;
39176;SDS011;24904;52.208;21.192;2023-03-13T21:34:32;12.80;;;6.50;;
39176;SDS011;24904;52.208;21.192;2023-03-13T21:39:35;11.00;;;6.10;;
39176;SDS011;24904;52.208;21.192;2023-03-13T21:44:41;14.20;;;5.60;;
39176;SDS011;24904;52.208;21.192;2023-03-13T21:49:44;11.80;;;5.50;;
39176;SDS011;24904;52.208;21.192;2023-03-13T21:54:47;11.00;;;5.90;;
39176;SDS011;24904;52.208;21.192;2023-03-13T21:59:50;10.00;;;5.70;;
39176;SDS011;24904;52.208;21.192;2023-03-13T22:04:53;11.30;;;5.70;;
39176;SDS011;24904;52.208;21.192;2023-03-13T22:09:57;11.10;;;5.50;;
39176;SDS011;24904;52.208;21.192;2023-03-13T22:15:00;12.70;;;5.90;;
39176;SDS011;24904;52.208;21.192;2023-03-13T22:20:04;11.20;;;5.20;;
39176;SDS011;24904;52.208;21.192;2023-03-13T22:25:10;10.50;;;5.80;;
39176;SDS011;24904;52.208;21.192;2023-03-13T22:30:13;11.80;;;5.70;;
39176;SDS011;24904;52.208;21.192;2023-03-13T22:35:16;12.90;;;6.20;;
39176;SDS011;24904;52.208;21.192;2023-03-13T22:40:20;10.20;;;5.60;;
39176;SDS011;24904;52.208;21.192;2023-03-13T22:45:23;9.00;;;5.20;;
39176;SDS011;24904;52.208;21.192;2023-03-13T22:58:53;9.90;;;5.40;;
39176;SDS011;24904;52.208;21.192;2023-03-13T23:03:56;8.90;;;5.20;;
39176;SDS011;24904;52.208;21.192;2023-03-13T23:08:59;13.10;;;6.00;;
39176;SDS011;24904;52.208;21.192;2023-03-13T23:14:02;11.90;;;5.80;;
39176;SDS011;24904;52.208;21.192;2023-03-13T23:19:05;14.10;;;6.60;;
39176;SDS011;24904;52.208;21.192;2023-03-13T23:24:08;13.20;;;6.00;;
39176;SDS011;24904;52.208;21.192;2023-03-13T23:29:11;13.60;;;6.30;;
39176;SDS011;24904;52.208;21.192;2023-03-13T23:34:14;13.20;;;6.10;;
39176;SDS011;24904;52.208;21.192;2023-03-13T23:39:21;9.90;;;5.90;;
39176;SDS011;24904;52.208;21.192;2023-03-13T23:44:24;12.40;;;5.70;;
39176;SDS011;24904;52.208;21.192;2023-03-13T23:49:30;13.40;;;6.70;;
39176;SDS011;24904;52.208;21.192;2023-03-13T23:54:33;12.00;;;6.90;;
39176;SDS011;24904;52.208;21.192;2023-03-13T23:59:36;13.70;;;6.20;;
